Time;durP1;ratioP1;P1;durP2;ratioP2;P2;SDS_P1;SDS_P2;PMS_P1;PMS_P2;Temp;Humidity;BMP_temperature;BMP_pressure;BME280_temperature;BME280_humidity;BME280_pressure;Samples;Min_cycle;Max_cycle;Signal;HPM_P1;HPM_P2
2023/11/23 00:01:48;;;;;;;;;;;15.80;86.70;;;;;;3981729;29;19936;-52
2023/11/23 00:04:29;;;;;;;;;;;15.80;86.90;;;;;;3982346;29;19935;-53
2023/11/23 00:07:11;;;;;;;;;;;15.80;87.20;;;;;;3981602;29;19949;-49
2023/11/23 00:09:52;;;;;;;;;;;15.80;87.20;;;;;;3981554;29;19939;-53
2023/11/23 00:12:33;;;;;;;;;;;15.90;86.90;;;;;;3982248;29;19940;-48
2023/11/23 00:15:15;;;;;;;;;;;16.00;86.60;;;;;;3982281;29;19935;-49
2023/11/23 00:17:56;;;;;;;;;;;16.10;86.30;;;;;;3980603;29;19979;-48
2023/11/23 00:20:36;;;;;;;;;;;16.20;85.90;;;;;;3982580;29;19936;-48
2023/11/23 00:23:17;;;;;;;;;;;16.30;86.70;;;;;;3984705;29;19981;-53
2023/11/23 00:25:58;;;;;;;;;;;16.30;85.70;;;;;;3984849;29;19940;-48
2023/11/23 00:28:38;;;;;;;;;;;16.30;85.50;;;;;;3983904;29;19936;-48
2023/11/23 00:31:20;;;;;;;;;;;16.30;86.40;;;;;;3984388;29;19939;-49
2023/11/23 00:34:03;;;;;;;;;;;16.30;85.50;;;;;;3984291;29;19936;-48
2023/11/23 00:36:44;;;;;;;;;;;16.30;85.60;;;;;;3984149;29;19966;-49
2023/11/23 00:39:25;;;;;;;;;;;16.20;86.70;;;;;;3984411;29;19936;-49
2023/11/23 00:42:06;;;;;;;;;;;16.20;85.80;;;;;;3984813;29;19940;-47
2023/11/23 00:44:47;;;;;;;;;;;16.30;85.90;;;;;;3985038;29;19963;-48
2023/11/23 00:47:29;;;;;;;;;;;16.30;85.80;;;;;;3969767;29;19940;-47
2023/11/23 00:50:10;;;;;;;;;;;16.20;85.80;;;;;;3969628;29;20401;-49
2023/11/23 00:52:51;;;;;;;;;;;16.20;85.90;;;;;;3969287;29;20005;-50
2023/11/23 00:55:31;;;;;;;;;;;16.10;86.90;;;;;;3969097;29;19956;-49
2023/11/23 00:58:12;;;;;;;;;;;16.10;86.40;;;;;;3974251;29;20304;-52
2023/11/23 01:00:53;;;;;;;;;;;16.00;86.70;;;;;;3972523;29;20033;-50
2023/11/23 01:03:35;;;;;;;;;;;16.10;86.80;;;;;;3983905;29;20069;-54
2023/11/23 01:06:16;;;;;;;;;;;16.10;86.70;;;;;;3972068;29;19940;-50
2023/11/23 01:08:58;;;;;;;;;;;16.20;86.60;;;;;;3983619;29;19996;-52
2023/11/23 01:11:38;;;;;;;;;;;16.30;86.40;;;;;;3984316;29;20008;-52
2023/11/23 01:14:19;;;;;;;;;;;16.30;87.00;;;;;;3983855;29;20277;-51
2023/11/23 01:17:00;;;;;;;;;;;16.30;86.00;;;;;;3982703;29;19936;-50
2023/11/23 01:19:42;;;;;;;;;;;16.30;86.00;;;;;;3984401;29;19985;-52
2023/11/23 01:22:22;;;;;;;;;;;16.20;86.10;;;;;;3984277;29;20385;-48
2023/11/23 01:25:05;;;;;;;;;;;16.20;86.30;;;;;;3982371;29;19939;-52
2023/11/23 01:27:45;;;;;;;;;;;16.10;86.50;;;;;;3984417;29;19984;-50
2023/11/23 01:30:26;;;;;;;;;;;16.10;87.70;;;;;;3983187;29;19940;-50
2023/11/23 01:33:07;;;;;;;;;;;16.10;86.90;;;;;;3968870;29;19940;-50
2023/11/23 01:35:49;;;;;;;;;;;16.10;86.90;;;;;;3971985;29;20385;-49
2023/11/23 01:38:30;;;;;;;;;;;16.10;86.90;;;;;;3973477;29;19957;-52
2023/11/23 01:41:11;;;;;;;;;;;16.10;87.20;;;;;;3983362;29;19936;-48
2023/11/23 01:43:52;;;;;;;;;;;16.10;87.10;;;;;;3982150;29;19975;-54
2023/11/23 01:46:35;;;;;;;;;;;16.30;86.90;;;;;;3983637;29;19939;-48
2023/11/23 01:49:18;;;;;;;;;;;16.40;86.50;;;;;;3972687;29;19939;-50
2023/11/23 01:52:00;;;;;;;;;;;16.40;86.10;;;;;;3972222;29;19936;-50
2023/11/23 01:54:41;;;;;;;;;;;16.40;86.80;;;;;;3982881;29;20362;-51
2023/11/23 01:57:23;;;;;;;;;;;16.50;85.90;;;;;;3957452;29;20385;-50
2023/11/23 02:00:03;;;;;;;;;;;16.50;85.70;;;;;;3968890;29;20058;-48
2023/11/23 02:02:52;;;;;;;;;;;16.50;85.70;;;;;;3968684;29;19940;-49
2023/11/23 02:05:34;;;;;;;;;;;16.50;85.80;;;;;;3970679;29;20051;-50
2023/11/23 02:08:17;;;;;;;;;;;16.40;86.00;;;;;;3983233;29;19936;-53
2023/11/23 02:10:58;;;;;;;;;;;16.40;86.10;;;;;;3971547;29;19939;-52
2023/11/23 02:13:39;;;;;;;;;;;16.40;86.10;;;;;;3969403;29;19936;-52
2023/11/23 02:16:21;;;;;;;;;;;16.40;86.00;;;;;;3977445;29;19945;-52
2023/11/23 02:19:01;;;;;;;;;;;16.40;86.00;;;;;;3983504;29;19936;-52
2023/11/23 02:21:43;;;;;;;;;;;16.40;86.10;;;;;;3983480;29;19940;-52
2023/11/23 02:24:26;;;;;;;;;;;16.40;86.30;;;;;;3972247;29;20065;-50
2023/11/23 02:27:07;;;;;;;;;;;16.30;86.60;;;;;;3980290;29;20387;-50
2023/11/23 02:29:48;;;;;;;;;;;16.30;86.70;;;;;;3983137;29;19936;-51
2023/11/23 02:32:29;;;;;;;;;;;16.50;86.40;;;;;;3982635;29;19935;-51
2023/11/23 02:35:10;;;;;;;;;;;16.50;86.10;;;;;;3957075;29;19936;-50
2023/11/23 02:37:51;;;;;;;;;;;16.60;85.90;;;;;;3956517;29;19955;-49
2023/11/23 02:40:33;;;;;;;;;;;16.60;85.60;;;;;;3967480;29;20372;-49
2023/11/23 02:43:15;;;;;;;;;;;16.70;85.50;;;;;;3968177;29;19940;-53
2023/11/23 02:45:57;;;;;;;;;;;16.70;85.30;;;;;;3960747;29;19975;-48
2023/11/23 02:48:38;;;;;;;;;;;16.70;85.40;;;;;;3968059;29;19936;-49
2023/11/23 02:51:19;;;;;;;;;;;16.60;85.50;;;;;;3980793;29;19940;-50
2023/11/23 02:54:00;;;;;;;;;;;16.70;85.50;;;;;;3982105;29;20008;-50
2023/11/23 02:56:42;;;;;;;;;;;16.70;85.30;;;;;;3982298;29;20116;-50
2023/11/23 02:59:23;;;;;;;;;;;16.70;85.30;;;;;;3982725;29;19939;-52
2023/11/23 03:02:03;;;;;;;;;;;16.70;85.20;;;;;;3982882;29;19935;-50
2023/11/23 03:04:44;;;;;;;;;;;16.80;85.20;;;;;;3981520;29;20076;-49
2023/11/23 03:07:25;;;;;;;;;;;16.80;85.10;;;;;;3967272;29;19940;-50
2023/11/23 03:10:06;;;;;;;;;;;16.70;85.10;;;;;;3967224;29;19936;-52
2023/11/23 03:12:48;;;;;;;;;;;16.80;85.20;;;;;;3966694;29;19996;-54
2023/11/23 03:15:29;;;;;;;;;;;16.70;85.20;;;;;;3971765;29;20376;-53
2023/11/23 03:18:09;;;;;;;;;;;16.80;85.30;;;;;;3982496;29;19939;-54
2023/11/23 03:20:52;;;;;;;;;;;16.70;86.20;;;;;;3982555;29;19936;-51
2023/11/23 03:23:33;;;;;;;;;;;16.70;85.60;;;;;;3982730;29;20069;-53
2023/11/23 03:26:13;;;;;;;;;;;16.70;85.60;;;;;;3970827;29;20088;-52
2023/11/23 03:28:56;;;;;;;;;;;16.70;86.40;;;;;;3981797;29;19951;-48
2023/11/23 03:31:37;;;;;;;;;;;16.70;85.50;;;;;;3982731;29;19939;-49
2023/11/23 03:34:19;;;;;;;;;;;16.70;85.50;;;;;;3982550;29;20069;-50
2023/11/23 03:37:00;;;;;;;;;;;16.70;85.40;;;;;;3982519;29;20029;-50
2023/11/23 03:39:40;;;;;;;;;;;16.70;85.40;;;;;;3981948;29;20510;-51
2023/11/23 03:42:21;;;;;;;;;;;16.60;85.60;;;;;;3970695;29;19985;-48
2023/11/23 03:45:03;;;;;;;;;;;16.60;85.70;;;;;;3982211;29;19939;-48
2023/11/23 03:47:45;;;;;;;;;;;16.50;85.90;;;;;;3981362;29;20393;-49
2023/11/23 03:50:26;;;;;;;;;;;16.50;86.30;;;;;;3975629;29;19936;-50
2023/11/23 03:53:06;;;;;;;;;;;16.40;86.50;;;;;;3969495;29;19956;-49
2023/11/23 03:55:47;;;;;;;;;;;16.30;87.60;;;;;;3970195;29;20004;-52
2023/11/23 03:58:28;;;;;;;;;;;16.30;87.20;;;;;;3983073;29;19946;-49
2023/11/23 04:01:10;;;;;;;;;;;16.30;87.40;;;;;;3979092;29;19941;-52
2023/11/23 04:03:51;;;;;;;;;;;16.40;87.10;;;;;;3970186;29;20402;-53
2023/11/23 04:06:32;;;;;;;;;;;16.50;86.70;;;;;;3984319;29;20017;-51
2023/11/23 04:09:12;;;;;;;;;;;16.60;86.40;;;;;;3984521;29;19939;-51
2023/11/23 04:11:53;;;;;;;;;;;16.60;87.00;;;;;;3985476;29;20292;-50
2023/11/23 04:14:34;;;;;;;;;;;16.70;86.00;;;;;;3985035;29;19940;-50
2023/11/23 04:17:16;;;;;;;;;;;16.70;85.80;;;;;;3974269;29;19985;-48
2023/11/23 04:19:57;;;;;;;;;;;16.70;85.90;;;;;;3970640;29;19940;-53
2023/11/23 04:22:37;;;;;;;;;;;16.70;85.90;;;;;;3970794;29;19982;-52
2023/11/23 04:25:18;;;;;;;;;;;16.60;86.00;;;;;;3979286;29;20017;-53
2023/11/23 04:27:59;;;;;;;;;;;16.50;86.30;;;;;;3984802;29;20480;-51
2023/11/23 04:30:40;;;;;;;;;;;16.50;86.60;;;;;;3984171;29;20535;-50
2023/11/23 04:33:23;;;;;;;;;;;16.50;86.80;;;;;;3981234;29;19936;-51
2023/11/23 04:36:04;;;;;;;;;;;16.50;86.90;;;;;;3984723;29;20277;-54
2023/11/23 04:38:45;;;;;;;;;;;16.40;87.00;;;;;;3973647;29;20305;-50
2023/11/23 04:41:26;;;;;;;;;;;16.40;87.10;;;;;;3984608;29;20392;-49
2023/11/23 04:44:06;;;;;;;;;;;16.40;87.10;;;;;;3984713;29;19939;-50
2023/11/23 04:46:47;;;;;;;;;;;16.40;87.10;;;;;;3973304;29;19940;-53
2023/11/23 04:49:29;;;;;;;;;;;16.40;87.30;;;;;;3969670;29;20503;-48
2023/11/23 04:52:09;;;;;;;;;;;16.40;87.50;;;;;;3969612;29;19945;-52
2023/11/23 04:54:50;;;;;;;;;;;16.50;87.20;;;;;;3974783;29;19939;-54
2023/11/23 04:57:31;;;;;;;;;;;16.50;86.90;;;;;;3983438;29;19952;-52
2023/11/23 05:00:13;;;;;;;;;;;16.50;86.70;;;;;;3984187;29;20077;-52
2023/11/23 05:02:54;;;;;;;;;;;16.60;86.90;;;;;;3984619;29;19960;-53
2023/11/23 05:05:36;;;;;;;;;;;16.60;86.80;;;;;;3983185;29;19984;-53
2023/11/23 05:08:17;;;;;;;;;;;16.60;86.60;;;;;;3983806;29;19955;-48
2023/11/23 05:10:58;;;;;;;;;;;16.60;86.50;;;;;;3972840;29;19936;-49
2023/11/23 05:13:39;;;;;;;;;;;16.60;86.50;;;;;;3984148;29;19940;-48
2023/11/23 05:16:19;;;;;;;;;;;16.60;86.50;;;;;;3979432;29;20012;-52
2023/11/23 05:19:01;;;;;;;;;;;16.60;86.50;;;;;;3983933;29;19936;-52
2023/11/23 05:21:44;;;;;;;;;;;16.60;86.50;;;;;;3975925;29;20290;-54
2023/11/23 05:24:25;;;;;;;;;;;16.50;86.60;;;;;;3969645;29;19961;-52
2023/11/23 05:27:06;;;;;;;;;;;16.50;86.90;;;;;;3975390;29;20392;-54
2023/11/23 05:29:48;;;;;;;;;;;16.60;87.00;;;;;;3969450;29;19940;-52
2023/11/23 05:32:30;;;;;;;;;;;16.60;86.60;;;;;;3968872;29;19936;-51
2023/11/23 05:35:12;;;;;;;;;;;16.70;86.30;;;;;;3973713;29;19936;-49
2023/11/23 05:37:55;;;;;;;;;;;16.80;86.10;;;;;;3984398;29;19940;-48
2023/11/23 05:40:35;;;;;;;;;;;16.80;85.90;;;;;;3983404;29;20004;-48
2023/11/23 05:43:18;;;;;;;;;;;16.80;85.70;;;;;;3983726;29;20017;-52
2023/11/23 05:45:59;;;;;;;;;;;16.80;85.50;;;;;;3982803;29;19935;-53
2023/11/23 05:48:40;;;;;;;;;;;16.80;85.60;;;;;;3983543;29;19940;-52
2023/11/23 05:51:20;;;;;;;;;;;16.80;85.60;;;;;;3983406;29;20065;-49
2023/11/23 05:54:06;;;;;;;;;;;16.80;85.90;;;;;;3968826;29;19981;-48
2023/11/23 05:56:46;;;;;;;;;;;16.70;86.20;;;;;;3976730;29;19939;-52
2023/11/23 05:59:27;;;;;;;;;;;16.70;87.10;;;;;;3982929;29;19935;-54
2023/11/23 06:02:08;;;;;;;;;;;16.80;86.00;;;;;;3918971;29;19936;-53
2023/11/23 06:04:48;;;;;;;;;;;16.80;85.80;;;;;;3976040;29;19972;-50
2023/11/23 06:07:29;;;;;;;;;;;16.90;86.60;;;;;;3982187;29;20577;-49
2023/11/23 06:10:12;;;;;;;;;;;16.80;85.80;;;;;;3983513;29;20054;-48
2023/11/23 06:12:52;;;;;;;;;;;16.90;85.70;;;;;;3983406;29;19936;-49
2023/11/23 06:15:33;;;;;;;;;;;16.90;85.40;;;;;;3983810;29;20051;-50
2023/11/23 06:18:14;;;;;;;;;;;16.90;85.50;;;;;;3982110;29;20093;-50
2023/11/23 06:20:54;;;;;;;;;;;17.00;85.30;;;;;;3968446;29;19971;-49
2023/11/23 06:23:34;;;;;;;;;;;17.00;85.60;;;;;;3968223;29;19980;-49
2023/11/23 06:26:20;;;;;;;;;;;17.00;86.50;;;;;;3971912;29;20026;-52
2023/11/23 06:29:01;;;;;;;;;;;16.90;85.70;;;;;;3982683;29;19937;-49
2023/11/23 06:31:42;;;;;;;;;;;16.90;85.80;;;;;;3980286;29;19956;-52
2023/11/23 06:34:23;;;;;;;;;;;16.90;86.70;;;;;;3968153;29;20290;-49
2023/11/23 06:37:04;;;;;;;;;;;16.90;85.90;;;;;;3982699;29;19940;-51
2023/11/23 06:39:45;;;;;;;;;;;16.80;86.00;;;;;;3967932;29;19997;-49
2023/11/23 06:42:27;;;;;;;;;;;16.80;86.30;;;;;;3967900;29;19936;-51
2023/11/23 06:45:08;;;;;;;;;;;16.80;86.50;;;;;;3968248;29;20401;-50
2023/11/23 06:47:49;;;;;;;;;;;16.80;86.40;;;;;;3982430;29;20726;-49
2023/11/23 06:50:30;;;;;;;;;;;16.80;86.20;;;;;;3982488;29;19975;-48
2023/11/23 06:53:11;;;;;;;;;;;16.80;86.10;;;;;;3982632;29;20085;-47
2023/11/23 06:55:51;;;;;;;;;;;16.80;86.20;;;;;;3982595;29;19935;-48
2023/11/23 06:58:33;;;;;;;;;;;16.70;86.40;;;;;;3970613;29;19944;-48
2023/11/23 07:01:14;;;;;;;;;;;16.70;86.50;;;;;;3978377;29;19936;-51
2023/11/23 07:03:55;;;;;;;;;;;16.60;86.60;;;;;;3982095;29;19936;-49
2023/11/23 07:06:36;;;;;;;;;;;16.50;86.90;;;;;;3982416;29;19936;-48
2023/11/23 07:09:17;;;;;;;;;;;16.50;87.20;;;;;;3974554;29;19975;-50
2023/11/23 07:11:58;;;;;;;;;;;16.40;87.40;;;;;;3982942;29;19936;-48
2023/11/23 07:14:42;;;;;;;;;;;16.40;87.90;;;;;;3981871;29;19971;-48
2023/11/23 07:17:24;;;;;;;;;;;16.50;87.80;;;;;;3981976;29;19940;-49
2023/11/23 07:20:06;;;;;;;;;;;16.50;87.50;;;;;;3982255;29;20293;-48
2023/11/23 07:22:47;;;;;;;;;;;16.70;88.10;;;;;;3970914;29;19944;-48
2023/11/23 07:25:27;;;;;;;;;;;16.70;87.10;;;;;;3982872;29;20287;-48
2023/11/23 07:28:11;;;;;;;;;;;16.70;86.90;;;;;;3977719;29;19952;-47
2023/11/23 07:30:56;;;;;;;;;;;16.80;87.30;;;;;;3971054;29;19951;-47
2023/11/23 07:33:37;;;;;;;;;;;16.80;86.10;;;;;;3974380;29;19936;-50
2023/11/23 07:36:18;;;;;;;;;;;16.80;85.70;;;;;;3982797;29;19936;-49
2023/11/23 07:38:58;;;;;;;;;;;16.80;85.30;;;;;;3982231;29;20381;-48
2023/11/23 07:41:39;;;;;;;;;;;16.70;85.20;;;;;;3979382;29;19939;-48
2023/11/23 07:44:21;;;;;;;;;;;16.70;85.10;;;;;;3977595;29;19978;-48
2023/11/23 07:47:03;;;;;;;;;;;16.70;85.30;;;;;;3967027;29;19937;-48
2023/11/23 07:49:45;;;;;;;;;;;16.70;85.30;;;;;;3980675;29;19940;-50
2023/11/23 07:52:26;;;;;;;;;;;16.70;85.10;;;;;;3983379;29;20425;-49
2023/11/23 07:55:09;;;;;;;;;;;16.70;84.70;;;;;;3981890;29;19989;-47
2023/11/23 07:57:51;;;;;;;;;;;16.80;84.50;;;;;;3966287;29;19940;-47
2023/11/23 08:00:32;;;;;;;;;;;16.70;84.30;;;;;;3970768;29;20441;-47
2023/11/23 08:03:14;;;;;;;;;;;16.70;84.40;;;;;;3981979;29;19939;-48
2023/11/23 08:05:56;;;;;;;;;;;16.70;84.40;;;;;;3981566;29;19951;-48
2023/11/23 08:08:36;;;;;;;;;;;16.70;84.40;;;;;;3981799;29;19977;-48
2023/11/23 08:11:17;;;;;;;;;;;16.70;84.30;;;;;;3972000;29;19971;-48
2023/11/23 08:14:00;;;;;;;;;;;16.60;84.30;;;;;;3978702;29;19965;-47
2023/11/23 08:16:41;;;;;;;;;;;16.60;84.40;;;;;;3981454;29;19939;-49
2023/11/23 08:19:25;;;;;;;;;;;16.50;84.50;;;;;;3964238;29;19976;-48
2023/11/23 08:22:08;;;;;;;;;;;16.50;84.70;;;;;;3981129;29;19981;-48
2023/11/23 08:24:49;;;;;;;;;;;16.40;84.80;;;;;;3974517;29;20334;-47
2023/11/23 08:27:29;;;;;;;;;;;16.40;85.10;;;;;;3966017;29;19937;-49
2023/11/23 08:30:12;;;;;;;;;;;16.30;85.20;;;;;;3966744;29;20506;-48
2023/11/23 08:32:53;;;;;;;;;;;16.20;85.50;;;;;;3968076;29;19944;-48
2023/11/23 08:35:35;;;;;;;;;;;16.20;85.60;;;;;;3981251;29;20100;-48
2023/11/23 08:38:16;;;;;;;;;;;16.30;85.60;;;;;;3981770;29;19986;-48
2023/11/23 08:40:56;;;;;;;;;;;16.30;85.40;;;;;;3980616;29;20350;-47
2023/11/23 08:43:37;;;;;;;;;;;16.30;85.30;;;;;;3983134;29;20290;-45
2023/11/23 08:46:18;;;;;;;;;;;16.40;85.10;;;;;;3984422;29;20356;-47
2023/11/23 08:48:59;;;;;;;;;;;16.40;85.80;;;;;;3984541;29;19936;-47
2023/11/23 08:51:41;;;;;;;;;;;16.40;84.80;;;;;;3966773;29;19944;-46
2023/11/23 08:54:22;;;;;;;;;;;16.40;84.70;;;;;;3968654;29;19936;-45
2023/11/23 08:57:04;;;;;;;;;;;16.40;84.80;;;;;;3974411;29;20302;-46
2023/11/23 08:59:44;;;;;;;;;;;16.40;85.00;;;;;;3982794;29;19936;-49
2023/11/23 09:02:25;;;;;;;;;;;16.40;85.20;;;;;;3984228;29;19935;-51
2023/11/23 09:05:08;;;;;;;;;;;16.30;85.50;;;;;;3963503;29;19957;-50
2023/11/23 09:07:50;;;;;;;;;;;16.30;85.80;;;;;;3968525;29;19936;-49
2023/11/23 09:10:31;;;;;;;;;;;16.30;86.20;;;;;;3983770;29;20407;-47
2023/11/23 09:13:11;;;;;;;;;;;16.30;86.50;;;;;;3983663;29;19985;-45
2023/11/23 09:15:53;;;;;;;;;;;16.30;86.70;;;;;;3983640;29;20305;-46
2023/11/23 09:18:34;;;;;;;;;;;16.30;87.10;;;;;;3981704;29;20308;-46
2023/11/23 09:21:17;;;;;;;;;;;16.20;87.20;;;;;;3983129;29;19936;-51
2023/11/23 09:23:59;;;;;;;;;;;16.20;88.20;;;;;;3982798;29;19937;-47
2023/11/23 09:26:40;;;;;;;;;;;16.20;87.50;;;;;;3968756;29;19939;-46
2023/11/23 09:29:21;;;;;;;;;;;16.20;88.60;;;;;;3981173;29;20491;-47
2023/11/23 09:32:03;;;;;;;;;;;16.30;87.90;;;;;;3983598;29;19936;-47
2023/11/23 09:34:44;;;;;;;;;;;16.40;87.80;;;;;;3982990;29;19992;-48
2023/11/23 09:37:26;;;;;;;;;;;16.40;88.50;;;;;;3983222;29;19957;-49
2023/11/23 09:40:09;;;;;;;;;;;16.40;87.60;;;;;;3972084;29;20793;-53
2023/11/23 09:42:50;;;;;;;;;;;16.50;87.70;;;;;;3979705;29;19957;-53
2023/11/23 09:45:32;;;;;;;;;;;16.50;87.70;;;;;;3969520;29;19935;-51
2023/11/23 09:48:15;;;;;;;;;;;16.50;87.60;;;;;;3983125;29;20400;-50
2023/11/23 09:50:56;;;;;;;;;;;16.50;87.50;;;;;;3982883;29;19985;-51
2023/11/23 09:53:36;;;;;;;;;;;16.50;87.20;;;;;;3974424;29;20066;-51
2023/11/23 09:56:19;;;;;;;;;;;16.60;87.00;;;;;;3981827;29;19940;-51
2023/11/23 09:59:00;;;;;;;;;;;16.60;86.80;;;;;;3984046;29;19936;-51
2023/11/23 10:01:44;;;;;;;;;;;16.60;86.70;;;;;;3977243;29;20018;-49
2023/11/23 10:04:25;;;;;;;;;;;16.60;86.60;;;;;;3981916;29;19956;-47
2023/11/23 10:07:07;;;;;;;;;;;16.60;86.70;;;;;;3966082;29;20412;-51
2023/11/23 10:09:48;;;;;;;;;;;16.50;86.80;;;;;;3969279;29;20294;-51
2023/11/23 10:12:30;;;;;;;;;;;16.60;87.10;;;;;;3971647;29;19939;-53
2023/11/23 10:15:12;;;;;;;;;;;16.50;87.30;;;;;;3971702;29;19936;-52
2023/11/23 10:17:53;;;;;;;;;;;16.50;87.50;;;;;;3946215;29;20418;-49
2023/11/23 10:20:35;;;;;;;;;;;16.60;87.60;;;;;;3967904;29;20385;-51
2023/11/23 10:23:21;;;;;;;;;;;16.70;87.60;;;;;;3967325;29;19940;-52
2023/11/23 10:26:03;;;;;;;;;;;16.60;87.50;;;;;;3968102;29;19985;-50
2023/11/23 10:28:45;;;;;;;;;;;16.70;87.60;;;;;;3967679;29;19940;-50
2023/11/23 10:31:26;;;;;;;;;;;16.70;87.50;;;;;;3974630;29;19936;-49
2023/11/23 10:34:08;;;;;;;;;;;16.70;87.60;;;;;;3982889;29;20431;-49
2023/11/23 10:36:49;;;;;;;;;;;16.80;88.40;;;;;;3982238;29;20527;-48
2023/11/23 10:39:31;;;;;;;;;;;16.90;87.50;;;;;;3981736;29;19960;-51
2023/11/23 10:42:12;;;;;;;;;;;17.00;87.20;;;;;;3982810;29;19936;-54
2023/11/23 10:44:55;;;;;;;;;;;17.00;87.90;;;;;;3978113;29;20094;-55
2023/11/23 10:47:37;;;;;;;;;;;17.00;86.80;;;;;;3980245;29;19936;-53
2023/11/23 10:50:18;;;;;;;;;;;17.00;86.80;;;;;;3982784;29;19936;-48
2023/11/23 10:53:01;;;;;;;;;;;17.00;86.90;;;;;;3982769;29;19994;-49
2023/11/23 10:55:42;;;;;;;;;;;17.00;87.00;;;;;;3983052;29;19940;-50
2023/11/23 10:58:24;;;;;;;;;;;16.90;87.10;;;;;;3968046;29;20046;-51
2023/11/23 11:01:08;;;;;;;;;;;17.00;87.10;;;;;;3971226;29;19993;-48
2023/11/23 11:03:49;;;;;;;;;;;17.00;87.00;;;;;;3967500;29;20525;-49
2023/11/23 11:06:38;;;;;;;;;;;17.00;86.90;;;;;;3972825;29;19976;-49
2023/11/23 11:09:19;;;;;;;;;;;17.00;86.70;;;;;;3978988;29;19939;-51
2023/11/23 11:12:02;;;;;;;;;;;17.00;86.70;;;;;;3967432;29;20408;-49
2023/11/23 11:14:50;;;;;;;;;;;17.00;86.70;;;;;;3967518;29;19936;-49
2023/11/23 11:17:36;;;;;;;;;;;17.00;86.60;;;;;;3955922;29;19937;-49
2023/11/23 11:20:22;;;;;;;;;;;17.00;86.50;;;;;;3967119;29;20297;-49
2023/11/23 11:23:03;;;;;;;;;;;17.00;86.50;;;;;;3967195;29;19960;-48
2023/11/23 11:25:44;;;;;;;;;;;17.00;87.20;;;;;;3978734;29;19940;-49
2023/11/23 11:28:28;;;;;;;;;;;16.90;86.30;;;;;;3967915;29;19940;-52
2023/11/23 11:31:13;;;;;;;;;;;16.90;86.40;;;;;;3967339;29;19990;-54
2023/11/23 11:33:56;;;;;;;;;;;16.80;86.50;;;;;;3967164;29;19980;-53
2023/11/23 11:36:37;;;;;;;;;;;16.80;86.60;;;;;;3966951;29;20383;-51
2023/11/23 11:39:18;;;;;;;;;;;16.70;86.80;;;;;;3967529;29;19952;-52
2023/11/23 11:42:00;;;;;;;;;;;16.80;87.00;;;;;;3966677;29;19940;-50
2023/11/23 11:44:45;;;;;;;;;;;16.80;86.90;;;;;;3966911;29;19940;-51
2023/11/23 11:47:26;;;;;;;;;;;16.90;86.60;;;;;;3966730;29;19940;-50
2023/11/23 11:50:12;;;;;;;;;;;16.90;86.30;;;;;;3967065;29;19936;-56
2023/11/23 11:52:54;;;;;;;;;;;16.90;86.30;;;;;;3967031;29;20549;-56
2023/11/23 11:55:36;;;;;;;;;;;16.90;86.30;;;;;;3955666;29;19939;-56
2023/11/23 11:58:17;;;;;;;;;;;16.90;86.30;;;;;;3980500;29;20541;-56
2023/11/23 12:00:59;;;;;;;;;;;16.90;86.50;;;;;;3974277;29;20385;-57
2023/11/23 12:03:40;;;;;;;;;;;16.80;86.70;;;;;;3982215;29;20296;-55
2023/11/23 12:06:22;;;;;;;;;;;16.80;86.80;;;;;;3981287;29;20262;-55
2023/11/23 12:09:04;;;;;;;;;;;16.80;87.00;;;;;;3980778;29;20303;-55
2023/11/23 12:11:44;;;;;;;;;;;16.80;87.10;;;;;;3973453;29;19997;-56
2023/11/23 12:14:31;;;;;;;;;;;16.80;88.10;;;;;;3966742;29;20285;-55
2023/11/23 12:17:12;;;;;;;;;;;16.70;87.20;;;;;;3973408;29;19940;-55
2023/11/23 12:19:54;;;;;;;;;;;16.70;87.20;;;;;;3972923;29;20077;-56
2023/11/23 12:22:36;;;;;;;;;;;16.70;87.40;;;;;;3983123;29;19951;-56
2023/11/23 12:25:18;;;;;;;;;;;16.70;87.60;;;;;;3984801;29;20005;-52
2023/11/23 12:27:59;;;;;;;;;;;16.60;87.70;;;;;;3984128;29;19952;-51
2023/11/23 12:30:39;;;;;;;;;;;16.60;87.70;;;;;;3984193;29;20204;-50
2023/11/23 12:33:20;;;;;;;;;;;16.60;88.00;;;;;;3969512;29;19940;-52
2023/11/23 12:36:02;;;;;;;;;;;16.50;88.00;;;;;;3974648;29;19940;-50
2023/11/23 12:38:44;;;;;;;;;;;16.50;88.20;;;;;;3981620;29;19978;-49
2023/11/23 12:41:25;;;;;;;;;;;16.50;88.50;;;;;;3981540;29;19986;-50
2023/11/23 12:44:06;;;;;;;;;;;16.40;88.70;;;;;;3967249;29;19940;-49
2023/11/23 12:46:46;;;;;;;;;;;16.40;88.90;;;;;;3981334;29;20273;-49
2023/11/23 12:49:28;;;;;;;;;;;16.40;89.10;;;;;;3970264;29;19968;-52
2023/11/23 12:52:09;;;;;;;;;;;16.30;89.10;;;;;;3980846;29;19940;-52
2023/11/23 12:54:51;;;;;;;;;;;16.20;89.20;;;;;;3975974;29;19936;-52
2023/11/23 12:57:32;;;;;;;;;;;16.20;90.10;;;;;;3978004;29;19940;-53
2023/11/23 13:00:15;;;;;;;;;;;16.20;89.70;;;;;;3968715;29;20013;-53
2023/11/23 13:02:55;;;;;;;;;;;16.20;89.90;;;;;;3968013;29;20050;-50
2023/11/23 13:05:36;;;;;;;;;;;16.20;90.00;;;;;;3981065;29;19939;-49
2023/11/23 13:08:17;;;;;;;;;;;16.10;90.00;;;;;;3980804;29;20004;-50
2023/11/23 13:10:59;;;;;;;;;;;16.10;90.10;;;;;;3980413;29;20400;-51
2023/11/23 13:13:42;;;;;;;;;;;16.10;90.10;;;;;;3967469;29;20017;-57
2023/11/23 13:16:23;;;;;;;;;;;16.10;90.20;;;;;;3967444;29;19979;-56
2023/11/23 13:19:07;;;;;;;;;;;16.00;90.30;;;;;;3981107;29;19936;-56
2023/11/23 13:21:55;;;;;;;;;;;16.00;90.30;;;;;;3981501;29;19946;-56
2023/11/23 13:24:38;;;;;;;;;;;16.00;90.40;;;;;;3981762;29;20708;-57
2023/11/23 13:27:21;;;;;;;;;;;16.00;90.40;;;;;;3973229;29;20025;-57
2023/11/23 13:30:03;;;;;;;;;;;16.00;90.50;;;;;;3978781;29;19944;-58
2023/11/23 13:32:46;;;;;;;;;;;15.90;90.50;;;;;;3966928;29;20394;-57
2023/11/23 13:35:27;;;;;;;;;;;15.90;90.60;;;;;;3968905;29;20438;-56
2023/11/23 13:38:09;;;;;;;;;;;15.90;90.60;;;;;;3966531;29;19937;-57
2023/11/23 13:40:49;;;;;;;;;;;15.90;90.60;;;;;;3973095;29;20039;-57
2023/11/23 13:43:32;;;;;;;;;;;15.90;91.00;;;;;;3967797;29;19940;-57
2023/11/23 13:46:14;;;;;;;;;;;15.90;90.70;;;;;;3971662;29;19947;-58
2023/11/23 13:48:57;;;;;;;;;;;15.90;90.70;;;;;;3970949;29;20004;-57
2023/11/23 13:51:38;;;;;;;;;;;15.90;90.70;;;;;;3966701;29;19940;-57
2023/11/23 13:54:20;;;;;;;;;;;15.80;90.70;;;;;;3969881;29;20628;-57
2023/11/23 13:57:02;;;;;;;;;;;15.80;90.70;;;;;;3975078;29;19940;-58
2023/11/23 13:59:44;;;;;;;;;;;15.80;90.80;;;;;;3970586;29;19936;-59
2023/11/23 14:02:26;;;;;;;;;;;15.80;90.80;;;;;;3957380;29;19940;-58
2023/11/23 14:05:07;;;;;;;;;;;15.80;90.80;;;;;;3969880;29;20062;-58
2023/11/23 14:07:49;;;;;;;;;;;15.70;90.80;;;;;;3973474;29;20082;-56
2023/11/23 14:10:30;;;;;;;;;;;15.80;90.90;;;;;;3968356;29;20069;-57
2023/11/23 14:13:13;;;;;;;;;;;15.80;90.90;;;;;;3966631;29;19956;-58
2023/11/23 14:15:55;;;;;;;;;;;15.70;90.90;;;;;;3974059;29;20001;-58
2023/11/23 14:18:39;;;;;;;;;;;15.70;90.90;;;;;;3970945;29;19988;-58
2023/11/23 14:21:21;;;;;;;;;;;15.70;90.90;;;;;;3980489;29;19940;-59
2023/11/23 14:24:02;;;;;;;;;;;15.70;91.00;;;;;;3979064;29;19939;-58
2023/11/23 14:26:43;;;;;;;;;;;15.60;91.40;;;;;;3968045;29;19940;-58
2023/11/23 14:29:24;;;;;;;;;;;15.70;91.00;;;;;;3971194;29;20081;-58
2023/11/23 14:32:06;;;;;;;;;;;15.60;91.00;;;;;;3980229;29;19940;-58
2023/11/23 14:34:47;;;;;;;;;;;15.60;91.00;;;;;;3965848;29;19955;-59
2023/11/23 14:37:28;;;;;;;;;;;15.60;91.00;;;;;;3967974;29;19973;-58
2023/11/23 14:40:14;;;;;;;;;;;15.60;91.10;;;;;;3966866;29;19950;-58
2023/11/23 14:42:55;;;;;;;;;;;15.60;91.10;;;;;;3965933;29;20689;-57
2023/11/23 14:45:37;;;;;;;;;;;15.60;91.10;;;;;;3965122;29;19947;-58
2023/11/23 14:48:19;;;;;;;;;;;15.60;91.10;;;;;;3966470;29;19940;-58
2023/11/23 14:51:00;;;;;;;;;;;15.60;91.10;;;;;;3967891;29;19940;-58
2023/11/23 14:53:43;;;;;;;;;;;15.60;91.10;;;;;;3966054;29;19971;-58
2023/11/23 14:56:26;;;;;;;;;;;15.60;91.10;;;;;;3965908;29;20070;-58
2023/11/23 14:59:07;;;;;;;;;;;15.50;91.10;;;;;;3969877;29;19940;-58
2023/11/23 15:01:49;;;;;;;;;;;15.50;91.10;;;;;;3973112;29;19940;-58
2023/11/23 15:04:33;;;;;;;;;;;15.50;91.20;;;;;;3945131;29;19986;-58
2023/11/23 15:07:14;;;;;;;;;;;15.50;91.20;;;;;;3970633;29;20290;-58
2023/11/23 15:09:55;;;;;;;;;;;15.50;91.50;;;;;;3966644;29;19979;-58
2023/11/23 15:12:35;;;;;;;;;;;15.50;91.20;;;;;;3978817;29;19944;-56
2023/11/23 15:15:16;;;;;;;;;;;15.50;91.20;;;;;;3966341;29;19936;-57
2023/11/23 15:17:57;;;;;;;;;;;15.50;91.20;;;;;;3967471;29;19939;-57
2023/11/23 15:20:40;;;;;;;;;;;15.50;91.20;;;;;;3981687;29;19939;-56
2023/11/23 15:23:21;;;;;;;;;;;15.50;91.20;;;;;;3981880;29;20273;-57
2023/11/23 15:26:02;;;;;;;;;;;15.50;91.20;;;;;;3981581;29;20080;-57
2023/11/23 15:28:44;;;;;;;;;;;15.50;91.20;;;;;;3982069;29;20508;-58
2023/11/23 15:31:24;;;;;;;;;;;15.50;91.20;;;;;;3981518;29;19963;-57
2023/11/23 15:34:05;;;;;;;;;;;15.50;91.20;;;;;;3976062;29;20432;-58
2023/11/23 15:36:48;;;;;;;;;;;15.50;91.30;;;;;;3966786;29;19936;-58
2023/11/23 15:39:28;;;;;;;;;;;15.50;91.30;;;;;;3955804;29;19939;-56